sensor_id;sensor_type;location;lat;lon;timestamp;pressure;altitude;pressure_sealevel;temperature;humidity
66664;BME280;59683;51.428;-1.994;2023-12-20T00:00:55;101526.56;;;3.74;100.00
66664;BME280;59683;51.428;-1.994;2023-12-20T00:03:21;101536.13;;;3.75;100.00
66664;BME280;59683;51.428;-1.994;2023-12-20T00:05:47;101521.50;;;3.69;100.00
66664;BME280;59683;51.428;-1.994;2023-12-20T00:08:12;101515.25;;;3.73;100.00
66664;BME280;59683;51.428;-1.994;2023-12-20T00:10:38;101505.84;;;3.68;100.00
66664;BME280;59683;51.428;-1.994;2023-12-20T00:13:03;101507.31;;;3.75;100.00
66664;BME280;59683;51.428;-1.994;2023-12-20T00:15:29;101500.72;;;3.88;100.00
66664;BME280;59683;51.428;-1.994;2023-12-20T00:17:54;101506.13;;;3.83;100.00
66664;BME280;59683;51.428;-1.994;2023-12-20T00:20:19;101505.34;;;3.81;100.00
66664;BME280;59683;51.428;-1.994;2023-12-20T00:22:45;101504.50;;;3.81;100.00
66664;BME280;59683;51.428;-1.994;2023-12-20T00:25:10;101511.31;;;3.85;100.00
66664;BME280;59683;51.428;-1.994;2023-12-20T00:27:35;101506.56;;;3.95;100.00
66664;BME280;59683;51.428;-1.994;2023-12-20T00:30:01;101501.28;;;3.96;100.00
66664;BME280;59683;51.428;-1.994;2023-12-20T00:32:26;101492.81;;;3.89;100.00
66664;BME280;59683;51.428;-1.994;2023-12-20T00:34:51;101492.75;;;3.91;100.00
66664;BME280;59683;51.428;-1.994;2023-12-20T00:37:17;101496.16;;;3.93;100.00
66664;BME280;59683;51.428;-1.994;2023-12-20T00:39:42;101492.69;;;3.93;100.00
66664;BME280;59683;51.428;-1.994;2023-12-20T00:42:07;101489.13;;;3.95;100.00
66664;BME280;59683;51.428;-1.994;2023-12-20T00:44:33;101485.50;;;3.98;100.00
66664;BME280;59683;51.428;-1.994;2023-12-20T00:46:58;101481.38;;;3.92;100.00
66664;BME280;59683;51.428;-1.994;2023-12-20T00:49:24;101481.47;;;3.89;100.00
66664;BME280;59683;51.428;-1.994;2023-12-20T00:51:49;101487.63;;;3.88;100.00
66664;BME280;59683;51.428;-1.994;2023-12-20T00:54:16;101492.06;;;3.86;100.00
66664;BME280;59683;51.428;-1.994;2023-12-20T00:56:41;101502.53;;;3.86;100.00
66664;BME280;59683;51.428;-1.994;2023-12-20T00:59:06;101500.94;;;3.82;100.00
66664;BME280;59683;51.428;-1.994;2023-12-20T01:01:32;101491.41;;;3.81;100.00
66664;BME280;59683;51.428;-1.994;2023-12-20T01:03:58;101488.97;;;3.76;100.00
66664;BME280;59683;51.428;-1.994;2023-12-20T01:06:23;101493.72;;;3.88;100.00
66664;BME280;59683;51.428;-1.994;2023-12-20T01:08:49;101498.72;;;3.95;100.00
66664;BME280;59683;51.428;-1.994;2023-12-20T01:11:14;101505.69;;;3.96;100.00
66664;BME280;59683;51.428;-1.994;2023-12-20T01:13:39;101505.41;;;4.03;100.00
66664;BME280;59683;51.428;-1.994;2023-12-20T01:16:05;101511.66;;;3.99;100.00
66664;BME280;59683;51.428;-1.994;2023-12-20T01:18:31;101501.03;;;4.02;100.00
66664;BME280;59683;51.428;-1.994;2023-12-20T01:20:56;101502.78;;;4.03;100.00
66664;BME280;59683;51.428;-1.994;2023-12-20T01:23:26;101502.88;;;4.00;100.00
66664;BME280;59683;51.428;-1.994;2023-12-20T01:25:51;101497.81;;;3.96;100.00
66664;BME280;59683;51.428;-1.994;2023-12-20T01:28:17;101496.09;;;3.95;100.00
66664;BME280;59683;51.428;-1.994;2023-12-20T01:30:42;101496.00;;;3.98;100.00
66664;BME280;59683;51.428;-1.994;2023-12-20T01:33:07;101503.66;;;4.02;100.00
66664;BME280;59683;51.428;-1.994;2023-12-20T01:35:33;101486.13;;;4.04;100.00
66664;BME280;59683;51.428;-1.994;2023-12-20T01:37:58;101491.44;;;4.03;100.00
66664;BME280;59683;51.428;-1.994;2023-12-20T01:40:23;101488.63;;;4.07;100.00
66664;BME280;59683;51.428;-1.994;2023-12-20T01:43:00;101488.53;;;4.10;100.00
66664;BME280;59683;51.428;-1.994;2023-12-20T01:45:26;101493.47;;;4.18;100.00
66664;BME280;59683;51.428;-1.994;2023-12-20T01:47:51;101502.00;;;4.23;100.00
66664;BME280;59683;51.428;-1.994;2023-12-20T01:50:17;101492.31;;;4.25;100.00
66664;BME280;59683;51.428;-1.994;2023-12-20T01:52:43;101499.16;;;4.29;100.00
66664;BME280;59683;51.428;-1.994;2023-12-20T01:55:08;101499.16;;;4.29;100.00
66664;BME280;59683;51.428;-1.994;2023-12-20T01:57:40;101502.28;;;4.16;100.00
66664;BME280;59683;51.428;-1.994;2023-12-20T02:00:06;101496.50;;;4.07;100.00
66664;BME280;59683;51.428;-1.994;2023-12-20T02:02:32;101491.31;;;4.06;100.00
66664;BME280;59683;51.428;-1.994;2023-12-20T02:04:58;101496.63;;;4.04;100.00
66664;BME280;59683;51.428;-1.994;2023-12-20T02:07:24;101507.94;;;4.05;100.00
66664;BME280;59683;51.428;-1.994;2023-12-20T02:09:50;101499.00;;;4.10;100.00
66664;BME280;59683;51.428;-1.994;2023-12-20T02:12:15;101494.44;;;4.16;100.00
66664;BME280;59683;51.428;-1.994;2023-12-20T02:14:41;101508.38;;;4.16;100.00
66664;BME280;59683;51.428;-1.994;2023-12-20T02:17:06;101500.72;;;4.11;100.00
66664;BME280;59683;51.428;-1.994;2023-12-20T02:19:31;101492.84;;;4.11;100.00
66664;BME280;59683;51.428;-1.994;2023-12-20T02:22:08;101490.78;;;4.20;100.00
66664;BME280;59683;51.428;-1.994;2023-12-20T02:24:33;101490.44;;;4.29;100.00
66664;BME280;59683;51.428;-1.994;2023-12-20T02:26:59;101490.13;;;4.36;100.00
66664;BME280;59683;51.428;-1.994;2023-12-20T02:29:24;101485.66;;;4.38;100.00
66664;BME280;59683;51.428;-1.994;2023-12-20T02:31:50;101483.78;;;4.42;100.00
66664;BME280;59683;51.428;-1.994;2023-12-20T02:34:15;101478.34;;;4.47;100.00
66664;BME280;59683;51.428;-1.994;2023-12-20T02:36:40;101486.16;;;4.48;100.00
66664;BME280;59683;51.428;-1.994;2023-12-20T02:39:06;101481.97;;;4.44;100.00
66664;BME280;59683;51.428;-1.994;2023-12-20T02:41:31;101483.13;;;4.37;100.00
66664;BME280;59683;51.428;-1.994;2023-12-20T02:43:56;101466.88;;;4.27;100.00
66664;BME280;59683;51.428;-1.994;2023-12-20T02:46:23;101466.28;;;4.21;100.00
66664;BME280;59683;51.428;-1.994;2023-12-20T02:48:48;101457.88;;;4.12;100.00
66664;BME280;59683;51.428;-1.994;2023-12-20T02:51:13;101463.97;;;4.13;100.00
66664;BME280;59683;51.428;-1.994;2023-12-20T02:53:39;101478.72;;;4.16;100.00
66664;BME280;59683;51.428;-1.994;2023-12-20T02:56:04;101461.34;;;4.13;100.00
66664;BME280;59683;51.428;-1.994;2023-12-20T02:58:30;101448.50;;;4.07;100.00
66664;BME280;59683;51.428;-1.994;2023-12-20T03:00:55;101443.38;;;4.04;100.00
66664;BME280;59683;51.428;-1.994;2023-12-20T03:03:20;101447.75;;;4.03;100.00
66664;BME280;59683;51.428;-1.994;2023-12-20T03:05:45;101441.16;;;3.93;100.00
66664;BME280;59683;51.428;-1.994;2023-12-20T03:08:11;101447.50;;;3.87;100.00
66664;BME280;59683;51.428;-1.994;2023-12-20T03:10:37;101461.19;;;3.94;100.00
66664;BME280;59683;51.428;-1.994;2023-12-20T03:13:02;101456.06;;;3.91;100.00
66664;BME280;59683;51.428;-1.994;2023-12-20T03:15:27;101458.47;;;3.97;100.00
66664;BME280;59683;51.428;-1.994;2023-12-20T03:17:53;101472.31;;;4.01;100.00
66664;BME280;59683;51.428;-1.994;2023-12-20T03:20:18;101483.72;;;4.22;100.00
66664;BME280;59683;51.428;-1.994;2023-12-20T03:22:43;101470.78;;;4.39;100.00
66664;BME280;59683;51.428;-1.994;2023-12-20T03:25:09;101485.97;;;4.53;100.00
66664;BME280;59683;51.428;-1.994;2023-12-20T03:27:37;101479.13;;;4.71;100.00
66664;BME280;59683;51.428;-1.994;2023-12-20T03:30:03;101481.31;;;4.81;100.00
66664;BME280;59683;51.428;-1.994;2023-12-20T03:32:29;101481.44;;;4.99;100.00
66664;BME280;59683;51.428;-1.994;2023-12-20T03:34:54;101469.69;;;5.07;100.00
66664;BME280;59683;51.428;-1.994;2023-12-20T03:37:19;101474.03;;;5.08;100.00
66664;BME280;59683;51.428;-1.994;2023-12-20T03:39:45;101474.56;;;5.17;100.00
66664;BME280;59683;51.428;-1.994;2023-12-20T03:42:10;101467.72;;;5.13;100.00
66664;BME280;59683;51.428;-1.994;2023-12-20T03:44:38;101465.09;;;5.13;100.00
66664;BME280;59683;51.428;-1.994;2023-12-20T03:47:04;101462.94;;;5.02;100.00
66664;BME280;59683;51.428;-1.994;2023-12-20T03:49:29;101461.56;;;4.93;100.00
66664;BME280;59683;51.428;-1.994;2023-12-20T03:51:55;101455.59;;;4.90;100.00
66664;BME280;59683;51.428;-1.994;2023-12-20T03:54:20;101449.44;;;4.91;100.00
66664;BME280;59683;51.428;-1.994;2023-12-20T03:56:45;101431.16;;;4.89;100.00
66664;BME280;59683;51.428;-1.994;2023-12-20T03:59:10;101434.78;;;4.85;100.00
66664;BME280;59683;51.428;-1.994;2023-12-20T04:01:36;101435.91;;;4.79;100.00
66664;BME280;59683;51.428;-1.994;2023-12-20T04:04:01;101431.66;;;4.77;100.00
66664;BME280;59683;51.428;-1.994;2023-12-20T04:06:27;101436.16;;;4.73;100.00
66664;BME280;59683;51.428;-1.994;2023-12-20T04:08:52;101433.09;;;4.63;100.00
66664;BME280;59683;51.428;-1.994;2023-12-20T04:11:17;101423.34;;;4.67;100.00
66664;BME280;59683;51.428;-1.994;2023-12-20T04:13:43;101426.94;;;4.65;100.00
66664;BME280;59683;51.428;-1.994;2023-12-20T04:16:08;101422.66;;;4.62;100.00
66664;BME280;59683;51.428;-1.994;2023-12-20T04:18:33;101422.28;;;4.71;100.00
66664;BME280;59683;51.428;-1.994;2023-12-20T04:20:59;101411.34;;;4.82;100.00
66664;BME280;59683;51.428;-1.994;2023-12-20T04:23:24;101415.75;;;4.81;100.00
66664;BME280;59683;51.428;-1.994;2023-12-20T04:25:50;101409.56;;;4.82;100.00
66664;BME280;59683;51.428;-1.994;2023-12-20T04:28:15;101398.94;;;4.85;100.00
66664;BME280;59683;51.428;-1.994;2023-12-20T04:30:41;101396.63;;;4.98;100.00
66664;BME280;59683;51.428;-1.994;2023-12-20T04:33:07;101395.69;;;4.99;100.00
66664;BME280;59683;51.428;-1.994;2023-12-20T04:35:32;101407.94;;;5.00;100.00
66664;BME280;59683;51.428;-1.994;2023-12-20T04:37:57;101411.81;;;5.10;100.00
66664;BME280;59683;51.428;-1.994;2023-12-20T04:40:23;101405.38;;;5.18;100.00
66664;BME280;59683;51.428;-1.994;2023-12-20T04:42:48;101414.78;;;5.23;100.00
66664;BME280;59683;51.428;-1.994;2023-12-20T04:45:13;101419.53;;;5.34;100.00
66664;BME280;59683;51.428;-1.994;2023-12-20T04:47:41;101419.72;;;5.50;100.00
66664;BME280;59683;51.428;-1.994;2023-12-20T04:50:07;101428.00;;;5.59;100.00
66664;BME280;59683;51.428;-1.994;2023-12-20T04:52:33;101421.50;;;5.68;100.00
66664;BME280;59683;51.428;-1.994;2023-12-20T04:54:59;101420.19;;;5.77;100.00
66664;BME280;59683;51.428;-1.994;2023-12-20T04:57:24;101426.88;;;5.84;100.00
66664;BME280;59683;51.428;-1.994;2023-12-20T04:59:50;101418.31;;;5.99;100.00
66664;BME280;59683;51.428;-1.994;2023-12-20T05:02:15;101409.97;;;6.08;100.00
66664;BME280;59683;51.428;-1.994;2023-12-20T05:04:41;101406.25;;;6.13;100.00
66664;BME280;59683;51.428;-1.994;2023-12-20T05:07:06;101408.50;;;6.20;100.00
66664;BME280;59683;51.428;-1.994;2023-12-20T05:09:32;101398.78;;;6.22;100.00
66664;BME280;59683;51.428;-1.994;2023-12-20T05:11:57;101402.22;;;6.24;100.00
66664;BME280;59683;51.428;-1.994;2023-12-20T05:14:22;101392.69;;;6.22;100.00
66664;BME280;59683;51.428;-1.994;2023-12-20T05:16:48;101386.97;;;6.14;100.00
66664;BME280;59683;51.428;-1.994;2023-12-20T05:19:13;101387.47;;;6.03;100.00
66664;BME280;59683;51.428;-1.994;2023-12-20T05:21:39;101379.38;;;5.89;100.00
66664;BME280;59683;51.428;-1.994;2023-12-20T05:24:05;101375.53;;;5.77;100.00
66664;BME280;59683;51.428;-1.994;2023-12-20T05:26:30;101378.53;;;5.69;100.00
66664;BME280;59683;51.428;-1.994;2023-12-20T05:28:56;101384.63;;;5.70;100.00
66664;BME280;59683;51.428;-1.994;2023-12-20T05:31:21;101396.41;;;5.80;100.00
66664;BME280;59683;51.428;-1.994;2023-12-20T05:33:46;101394.34;;;6.05;100.00
66664;BME280;59683;51.428;-1.994;2023-12-20T05:36:12;101384.78;;;6.22;100.00
66664;BME280;59683;51.428;-1.994;2023-12-20T05:38:39;101379.16;;;6.29;100.00
66664;BME280;59683;51.428;-1.994;2023-12-20T05:41:04;101363.25;;;6.32;100.00
66664;BME280;59683;51.428;-1.994;2023-12-20T05:43:29;101357.13;;;6.32;100.00
66664;BME280;59683;51.428;-1.994;2023-12-20T05:45:55;101355.41;;;6.31;100.00
66664;BME280;59683;51.428;-1.994;2023-12-20T05:48:20;101353.03;;;6.26;100.00
66664;BME280;59683;51.428;-1.994;2023-12-20T05:50:46;101355.09;;;6.20;100.00
66664;BME280;59683;51.428;-1.994;2023-12-20T05:53:11;101348.75;;;6.06;100.00
66664;BME280;59683;51.428;-1.994;2023-12-20T05:55:36;101351.06;;;5.95;100.00
66664;BME280;59683;51.428;-1.994;2023-12-20T05:58:02;101352.94;;;5.92;100.00
66664;BME280;59683;51.428;-1.994;2023-12-20T06:00:28;101368.75;;;5.90;100.00
66664;BME280;59683;51.428;-1.994;2023-12-20T06:02:53;101383.44;;;5.96;100.00
66664;BME280;59683;51.428;-1.994;2023-12-20T06:05:19;101377.00;;;6.01;100.00
66664;BME280;59683;51.428;-1.994;2023-12-20T06:07:45;101373.63;;;5.99;100.00
66664;BME280;59683;51.428;-1.994;2023-12-20T06:10:12;101367.53;;;5.99;100.00
66664;BME280;59683;51.428;-1.994;2023-12-20T06:12:39;101378.88;;;5.99;100.00
66664;BME280;59683;51.428;-1.994;2023-12-20T06:15:04;101374.75;;;5.94;100.00
66664;BME280;59683;51.428;-1.994;2023-12-20T06:17:31;101375.94;;;5.87;100.00
66664;BME280;59683;51.428;-1.994;2023-12-20T06:19:57;101395.25;;;5.85;100.00
66664;BME280;59683;51.428;-1.994;2023-12-20T06:22:22;101386.44;;;5.87;100.00
66664;BME280;59683;51.428;-1.994;2023-12-20T06:24:47;101393.44;;;5.88;100.00
66664;BME280;59683;51.428;-1.994;2023-12-20T06:27:13;101387.47;;;5.84;100.00
66664;BME280;59683;51.428;-1.994;2023-12-20T06:29:38;101393.44;;;5.88;100.00
66664;BME280;59683;51.428;-1.994;2023-12-20T06:32:05;101390.72;;;5.89;100.00
66664;BME280;59683;51.428;-1.994;2023-12-20T06:34:31;101380.09;;;5.92;100.00
66664;BME280;59683;51.428;-1.994;2023-12-20T06:36:56;101376.41;;;5.96;100.00
66664;BME280;59683;51.428;-1.994;2023-12-20T06:39:21;101370.06;;;6.00;100.00
66664;BME280;59683;51.428;-1.994;2023-12-20T06:41:47;101382.34;;;6.00;100.00
66664;BME280;59683;51.428;-1.994;2023-12-20T06:44:12;101377.53;;;6.10;100.00
66664;BME280;59683;51.428;-1.994;2023-12-20T06:46:37;101380.53;;;6.19;100.00
66664;BME280;59683;51.428;-1.994;2023-12-20T06:49:03;101378.47;;;6.26;100.00
66664;BME280;59683;51.428;-1.994;2023-12-20T06:51:28;101371.81;;;6.36;100.00
66664;BME280;59683;51.428;-1.994;2023-12-20T06:53:55;101380.47;;;6.38;100.00
66664;BME280;59683;51.428;-1.994;2023-12-20T06:56:21;101388.22;;;6.41;100.00
66664;BME280;59683;51.428;-1.994;2023-12-20T06:58:46;101386.00;;;6.51;100.00
66664;BME280;59683;51.428;-1.994;2023-12-20T07:01:15;101379.66;;;6.55;100.00
66664;BME280;59683;51.428;-1.994;2023-12-20T07:03:41;101358.81;;;6.50;100.00
66664;BME280;59683;51.428;-1.994;2023-12-20T07:06:06;101357.50;;;6.42;100.00
66664;BME280;59683;51.428;-1.994;2023-12-20T07:08:32;101341.56;;;6.27;100.00
66664;BME280;59683;51.428;-1.994;2023-12-20T07:10:57;101342.09;;;6.17;100.00
66664;BME280;59683;51.428;-1.994;2023-12-20T07:13:23;101333.75;;;6.08;100.00
66664;BME280;59683;51.428;-1.994;2023-12-20T07:15:48;101334.91;;;6.03;100.00
66664;BME280;59683;51.428;-1.994;2023-12-20T07:18:14;101338.53;;;6.00;100.00
66664;BME280;59683;51.428;-1.994;2023-12-20T07:20:39;101345.34;;;6.04;100.00
66664;BME280;59683;51.428;-1.994;2023-12-20T07:23:05;101360.03;;;6.08;100.00
66664;BME280;59683;51.428;-1.994;2023-12-20T07:25:30;101355.41;;;6.14;100.00
66664;BME280;59683;51.428;-1.994;2023-12-20T07:27:58;101357.53;;;6.24;100.00
66664;BME280;59683;51.428;-1.994;2023-12-20T07:30:23;101352.25;;;6.24;100.00
66664;BME280;59683;51.428;-1.994;2023-12-20T07:32:49;101360.81;;;6.28;100.00
66664;BME280;59683;51.428;-1.994;2023-12-20T07:35:17;101352.63;;;6.34;100.00
66664;BME280;59683;51.428;-1.994;2023-12-20T07:37:43;101355.56;;;6.45;100.00
66664;BME280;59683;51.428;-1.994;2023-12-20T07:40:08;101356.19;;;6.50;100.00
66664;BME280;59683;51.428;-1.994;2023-12-20T07:42:34;101356.66;;;6.59;100.00
66664;BME280;59683;51.428;-1.994;2023-12-20T07:44:59;101370.28;;;6.67;100.00
66664;BME280;59683;51.428;-1.994;2023-12-20T07:47:24;101363.00;;;6.72;100.00
66664;BME280;59683;51.428;-1.994;2023-12-20T07:49:50;101354.53;;;6.82;100.00
66664;BME280;59683;51.428;-1.994;2023-12-20T07:52:17;101367.44;;;6.87;100.00
66664;BME280;59683;51.428;-1.994;2023-12-20T07:54:44;101374.41;;;6.88;100.00
66664;BME280;59683;51.428;-1.994;2023-12-20T07:57:10;101387.94;;;6.98;100.00
66664;BME280;59683;51.428;-1.994;2023-12-20T07:59:36;101392.66;;;7.09;100.00
66664;BME280;59683;51.428;-1.994;2023-12-20T08:02:01;101388.69;;;7.17;100.00
66664;BME280;59683;51.428;-1.994;2023-12-20T08:04:26;101391.00;;;7.23;100.00
66664;BME280;59683;51.428;-1.994;2023-12-20T08:06:52;101370.00;;;7.22;100.00
66664;BME280;59683;51.428;-1.994;2023-12-20T08:09:17;101379.09;;;7.16;100.00
66664;BME280;59683;51.428;-1.994;2023-12-20T08:11:46;101375.66;;;7.14;100.00
66664;BME280;59683;51.428;-1.994;2023-12-20T08:14:12;101384.19;;;7.19;100.00
66664;BME280;59683;51.428;-1.994;2023-12-20T08:16:37;101386.03;;;7.17;100.00
66664;BME280;59683;51.428;-1.994;2023-12-20T08:19:03;101381.63;;;7.18;100.00
66664;BME280;59683;51.428;-1.994;2023-12-20T08:21:28;101386.75;;;7.21;100.00
66664;BME280;59683;51.428;-1.994;2023-12-20T08:23:53;101399.59;;;7.27;100.00
66664;BME280;59683;51.428;-1.994;2023-12-20T08:26:19;101406.22;;;7.34;100.00
66664;BME280;59683;51.428;-1.994;2023-12-20T08:28:49;101394.75;;;7.35;100.00
66664;BME280;59683;51.428;-1.994;2023-12-20T08:31:18;101381.06;;;7.44;100.00
66664;BME280;59683;51.428;-1.994;2023-12-20T08:33:47;101379.38;;;7.43;100.00
66664;BME280;59683;51.428;-1.994;2023-12-20T08:36:13;101395.78;;;7.48;100.00
66664;BME280;59683;51.428;-1.994;2023-12-20T08:38:39;101386.53;;;7.57;100.00
66664;BME280;59683;51.428;-1.994;2023-12-20T08:41:05;101383.13;;;7.55;100.00
66664;BME280;59683;51.428;-1.994;2023-12-20T08:43:31;101378.66;;;7.57;100.00
66664;BME280;59683;51.428;-1.994;2023-12-20T08:45:57;101372.06;;;7.48;100.00
66664;BME280;59683;51.428;-1.994;2023-12-20T08:48:22;101370.22;;;7.50;100.00
66664;BME280;59683;51.428;-1.994;2023-12-20T08:50:47;101369.38;;;7.50;100.00
66664;BME280;59683;51.428;-1.994;2023-12-20T08:53:15;101370.47;;;7.62;100.00
66664;BME280;59683;51.428;-1.994;2023-12-20T08:55:41;101369.38;;;7.82;100.00
66664;BME280;59683;51.428;-1.994;2023-12-20T08:58:07;101381.59;;;7.98;100.00
66664;BME280;59683;51.428;-1.994;2023-12-20T09:00:36;101367.00;;;8.23;100.00
66664;BME280;59683;51.428;-1.994;2023-12-20T09:03:02;101353.84;;;8.39;100.00
66664;BME280;59683;51.428;-1.994;2023-12-20T09:05:28;101345.94;;;8.39;100.00
66664;BME280;59683;51.428;-1.994;2023-12-20T09:07:53;101342.34;;;8.40;100.00
66664;BME280;59683;51.428;-1.994;2023-12-20T09:10:19;101340.13;;;8.32;100.00
66664;BME280;59683;51.428;-1.994;2023-12-20T09:12:56;101334.75;;;8.34;100.00
66664;BME280;59683;51.428;-1.994;2023-12-20T09:15:26;101334.06;;;8.30;100.00
66664;BME280;59683;51.428;-1.994;2023-12-20T09:17:52;101329.47;;;8.34;100.00
66664;BME280;59683;51.428;-1.994;2023-12-20T09:20:18;101333.78;;;8.35;100.00
66664;BME280;59683;51.428;-1.994;2023-12-20T09:22:43;101330.47;;;8.31;100.00
66664;BME280;59683;51.428;-1.994;2023-12-20T09:25:10;101332.22;;;8.32;100.00
66664;BME280;59683;51.428;-1.994;2023-12-20T09:27:36;101327.09;;;8.29;100.00
66664;BME280;59683;51.428;-1.994;2023-12-20T09:30:02;101338.22;;;8.34;100.00
66664;BME280;59683;51.428;-1.994;2023-12-20T09:32:28;101329.28;;;8.37;100.00
66664;BME280;59683;51.428;-1.994;2023-12-20T09:34:54;101327.47;;;8.39;100.00
66664;BME280;59683;51.428;-1.994;2023-12-20T09:37:20;101330.94;;;8.39;100.00
66664;BME280;59683;51.428;-1.994;2023-12-20T09:39:45;101323.25;;;8.50;100.00
66664;BME280;59683;51.428;-1.994;2023-12-20T09:42:11;101312.31;;;8.71;100.00
66664;BME280;59683;51.428;-1.994;2023-12-20T09:44:39;101298.66;;;8.93;100.00
66664;BME280;59683;51.428;-1.994;2023-12-20T09:47:07;101296.00;;;9.21;100.00
66664;BME280;59683;51.428;-1.994;2023-12-20T09:49:34;101290.06;;;9.18;100.00
66664;BME280;59683;51.428;-1.994;2023-12-20T09:52:00;101311.88;;;9.07;100.00
66664;BME280;59683;51.428;-1.994;2023-12-20T09:54:28;101311.97;;;8.91;100.00
66664;BME280;59683;51.428;-1.994;2023-12-20T09:56:54;101317.50;;;8.87;100.00
66664;BME280;59683;51.428;-1.994;2023-12-20T09:59:19;101326.94;;;8.77;100.00
66664;BME280;59683;51.428;-1.994;2023-12-20T10:01:44;101327.63;;;8.80;100.00
66664;BME280;59683;51.428;-1.994;2023-12-20T10:04:12;101330.63;;;8.74;100.00
66664;BME280;59683;51.428;-1.994;2023-12-20T10:06:39;101333.16;;;8.75;100.00
66664;BME280;59683;51.428;-1.994;2023-12-20T10:09:05;101343.16;;;8.70;100.00
66664;BME280;59683;51.428;-1.994;2023-12-20T10:11:31;101347.66;;;8.68;100.00
66664;BME280;59683;51.428;-1.994;2023-12-20T10:14:00;101350.22;;;8.70;100.00
66664;BME280;59683;51.428;-1.994;2023-12-20T10:16:29;101343.25;;;8.69;100.00
66664;BME280;59683;51.428;-1.994;2023-12-20T10:18:56;101328.34;;;8.68;100.00
66664;BME280;59683;51.428;-1.994;2023-12-20T10:21:25;101347.59;;;8.70;100.00
66664;BME280;59683;51.428;-1.994;2023-12-20T10:23:53;101337.09;;;8.68;100.00
66664;BME280;59683;51.428;-1.994;2023-12-20T10:26:22;101354.56;;;8.71;100.00
66664;BME280;59683;51.428;-1.994;2023-12-20T10:28:53;101339.56;;;8.71;100.00
66664;BME280;59683;51.428;-1.994;2023-12-20T10:33:55;101331.56;;;8.87;100.00
66664;BME280;59683;51.428;-1.994;2023-12-20T10:36:23;101338.25;;;8.93;100.00
66664;BME280;59683;51.428;-1.994;2023-12-20T10:38:50;101345.81;;;8.99;100.00
66664;BME280;59683;51.428;-1.994;2023-12-20T10:41:19;101333.06;;;9.06;100.00
66664;BME280;59683;51.428;-1.994;2023-12-20T10:43:48;101317.41;;;9.17;100.00
66664;BME280;59683;51.428;-1.994;2023-12-20T10:46:15;101312.88;;;9.19;100.00
66664;BME280;59683;51.428;-1.994;2023-12-20T10:48:41;101299.69;;;9.19;100.00
66664;BME280;59683;51.428;-1.994;2023-12-20T10:51:10;101302.13;;;9.22;100.00
66664;BME280;59683;51.428;-1.994;2023-12-20T10:53:36;101301.72;;;9.28;100.00
66664;BME280;59683;51.428;-1.994;2023-12-20T10:56:02;101297.03;;;9.33;100.00
66664;BME280;59683;51.428;-1.994;2023-12-20T10:58:29;101298.78;;;9.47;100.00
66664;BME280;59683;51.428;-1.994;2023-12-20T11:01:00;101284.69;;;9.61;100.00
66664;BME280;59683;51.428;-1.994;2023-12-20T11:03:32;101273.34;;;9.59;100.00
66664;BME280;59683;51.428;-1.994;2023-12-20T11:06:07;101263.41;;;9.62;100.00
66664;BME280;59683;51.428;-1.994;2023-12-20T11:08:47;101251.81;;;9.65;100.00
66664;BME280;59683;51.428;-1.994;2023-12-20T11:11:47;101244.88;;;9.77;100.00
66664;BME280;59683;51.428;-1.994;2023-12-20T11:14:22;101245.50;;;9.80;100.00
66664;BME280;59683;51.428;-1.994;2023-12-20T11:16:48;101236.53;;;9.83;100.00
66664;BME280;59683;51.428;-1.994;2023-12-20T11:19:14;101220.16;;;9.90;100.00
66664;BME280;59683;51.428;-1.994;2023-12-20T11:21:40;101215.19;;;9.98;100.00
66664;BME280;59683;51.428;-1.994;2023-12-20T11:24:06;101220.50;;;9.98;100.00
66664;BME280;59683;51.428;-1.994;2023-12-20T11:26:32;101216.81;;;10.01;100.00
66664;BME280;59683;51.428;-1.994;2023-12-20T11:29:32;101198.59;;;10.09;100.00
66664;BME280;59683;51.428;-1.994;2023-12-20T11:32:00;101204.00;;;10.20;100.00
66664;BME280;59683;51.428;-1.994;2023-12-20T11:34:31;101212.34;;;10.14;100.00
66664;BME280;59683;51.428;-1.994;2023-12-20T11:36:58;101203.25;;;10.06;100.00
66664;BME280;59683;51.428;-1.994;2023-12-20T11:39:25;101201.78;;;10.02;100.00
66664;BME280;59683;51.428;-1.994;2023-12-20T11:41:51;101184.88;;;10.04;100.00
66664;BME280;59683;51.428;-1.994;2023-12-20T11:44:17;101177.22;;;10.00;100.00
66664;BME280;59683;51.428;-1.994;2023-12-20T11:46:44;101179.22;;;9.96;100.00
66664;BME280;59683;51.428;-1.994;2023-12-20T11:49:09;101181.34;;;10.04;100.00
66664;BME280;59683;51.428;-1.994;2023-12-20T11:51:34;101162.41;;;10.10;100.00
66664;BME280;59683;51.428;-1.994;2023-12-20T11:54:00;101179.56;;;10.17;100.00
66664;BME280;59683;51.428;-1.994;2023-12-20T11:56:25;101175.13;;;10.17;100.00
66664;BME280;59683;51.428;-1.994;2023-12-20T11:58:51;101172.88;;;10.11;100.00
66664;BME280;59683;51.428;-1.994;2023-12-20T12:01:16;101177.31;;;10.11;100.00
66664;BME280;59683;51.428;-1.994;2023-12-20T12:03:41;101163.38;;;10.09;100.00
66664;BME280;59683;51.428;-1.994;2023-12-20T12:06:08;101175.31;;;10.02;100.00
66664;BME280;59683;51.428;-1.994;2023-12-20T12:08:35;101159.66;;;9.98;100.00
66664;BME280;59683;51.428;-1.994;2023-12-20T12:11:00;101149.41;;;10.07;100.00
66664;BME280;59683;51.428;-1.994;2023-12-20T12:13:26;101142.53;;;10.30;100.00
66664;BME280;59683;51.428;-1.994;2023-12-20T12:15:53;101143.59;;;10.40;100.00
66664;BME280;59683;51.428;-1.994;2023-12-20T12:18:18;101141.38;;;10.47;100.00
66664;BME280;59683;51.428;-1.994;2023-12-20T12:20:44;101142.63;;;10.54;100.00
66664;BME280;59683;51.428;-1.994;2023-12-20T12:23:09;101126.75;;;10.54;100.00
66664;BME280;59683;51.428;-1.994;2023-12-20T12:25:35;101130.25;;;10.54;100.00
66664;BME280;59683;51.428;-1.994;2023-12-20T12:28:02;101127.19;;;10.48;100.00
66664;BME280;59683;51.428;-1.994;2023-12-20T12:30:28;101117.34;;;10.37;100.00
66664;BME280;59683;51.428;-1.994;2023-12-20T12:32:55;101112.28;;;10.34;100.00
66664;BME280;59683;51.428;-1.994;2023-12-20T12:35:21;101094.47;;;10.49;100.00